createdAt,value
2022-11-23T00:01:32.900Z,11.45
2022-11-23T00:04:05.784Z,11.50
2022-11-23T00:06:33.281Z,11.38
2022-11-23T00:09:00.252Z,11.27
2022-11-23T00:11:28.238Z,11.66
2022-11-23T00:13:55.942Z,11.59
2022-11-23T00:16:25.166Z,11.76
2022-11-23T00:18:57.297Z,11.12
2022-11-23T00:21:26.075Z,11.11
2022-11-23T00:23:53.447Z,11.55
2022-11-23T00:26:20.550Z,11.53
2022-11-23T00:28:48.023Z,11.78
2022-11-23T00:31:20.286Z,11.70
2022-11-23T00:33:54.607Z,11.83
2022-11-23T00:36:22.909Z,11.93
2022-11-23T00:38:50.346Z,11.89
2022-11-23T00:41:26.269Z,12.02
2022-11-23T00:43:53.309Z,12.00
2022-11-23T00:46:27.859Z,11.77
2022-11-23T00:48:56.299Z,12.02
2022-11-23T00:51:26.013Z,11.38
2022-11-23T00:53:53.077Z,11.44
2022-11-23T00:56:20.424Z,10.94
2022-11-23T00:58:51.432Z,11.30
2022-11-23T01:01:20.724Z,11.26
2022-11-23T01:03:50.414Z,11.10
2022-11-23T01:06:20.846Z,11.09
2022-11-23T01:08:58.683Z,11.12
2022-11-23T01:11:28.060Z,11.45
2022-11-23T01:13:55.429Z,11.59
2022-11-23T01:16:31.137Z,11.29
2022-11-23T01:19:04.611Z,11.47
2022-11-23T01:21:33.420Z,11.77
2022-11-23T01:24:00.209Z,11.66
2022-11-23T01:26:27.100Z,11.77
2022-11-23T01:28:57.275Z,11.96
2022-11-23T01:31:25.544Z,12.04
2022-11-23T01:33:57.803Z,12.12
2022-11-23T01:36:27.745Z,12.24
2022-11-23T01:38:55.629Z,12.32
2022-11-23T01:41:25.316Z,12.24
2022-11-23T01:43:52.970Z,12.34
2022-11-23T01:46:20.333Z,12.25
2022-11-23T01:48:57.218Z,12.27
2022-11-23T01:51:35.153Z,12.21
2022-11-23T01:54:13.730Z,11.87
2022-11-23T01:56:46.404Z,11.97
2022-11-23T01:59:17.331Z,12.15
2022-11-23T02:01:44.429Z,12.10
2022-11-23T02:04:22.456Z,11.40
2022-11-23T02:06:50.638Z,11.71
2022-11-23T02:09:20.065Z,12.00
2022-11-23T02:11:46.927Z,12.09
2022-11-23T02:14:16.830Z,12.21
2022-11-23T02:16:47.431Z,12.23
2022-11-23T02:19:41.530Z,11.66
2022-11-23T02:22:16.994Z,12.09
2022-11-23T02:24:49.515Z,12.09
2022-11-23T02:27:17.518Z,12.01
2022-11-23T02:29:44.595Z,12.01
2022-11-23T02:32:11.318Z,11.92
2022-11-23T02:34:38.134Z,11.90
2022-11-23T02:37:04.929Z,11.70
2022-11-23T02:39:46.463Z,11.86
2022-11-23T02:42:13.383Z,12.09
2022-11-23T02:44:40.020Z,12.12
2022-11-23T02:47:08.054Z,12.02
2022-11-23T02:49:34.982Z,11.97
2022-11-23T02:52:03.013Z,12.09
2022-11-23T02:54:30.099Z,12.23
2022-11-23T02:56:57.672Z,11.88
2022-11-23T02:59:24.735Z,11.46
2022-11-23T03:01:53.547Z,11.77
2022-11-23T03:04:27.162Z,11.43
2022-11-23T03:06:54.687Z,11.87
2022-11-23T03:09:21.526Z,11.55
2022-11-23T03:11:48.321Z,11.79
2022-11-23T03:14:15.370Z,11.45
2022-11-23T03:16:48.863Z,11.51
2022-11-23T03:19:17.778Z,10.87
2022-11-23T03:21:44.616Z,11.41
2022-11-23T03:24:11.522Z,11.02
2022-11-23T03:26:38.811Z,11.54
2022-11-23T03:29:10.369Z,11.83
2022-11-23T03:31:39.523Z,11.54
2022-11-23T03:34:10.571Z,11.37
2022-11-23T03:36:38.589Z,11.57
2022-11-23T03:39:05.585Z,11.80
2022-11-23T03:41:55.130Z,11.72
2022-11-23T03:44:26.939Z,11.76
2022-11-23T03:46:54.128Z,11.08
2022-11-23T03:49:20.817Z,11.84
2022-11-23T03:51:47.556Z,12.09
2022-11-23T03:54:14.531Z,12.02
2022-11-23T03:56:41.244Z,11.79
2022-11-23T03:59:08.311Z,11.94
2022-11-23T04:01:35.227Z,11.81
2022-11-23T04:04:05.537Z,11.89
2022-11-23T04:06:52.586Z,11.48
2022-11-23T04:09:24.121Z,11.46
2022-11-23T04:12:11.258Z,11.45
2022-11-23T04:14:39.657Z,11.46
2022-11-23T04:17:06.578Z,11.58
2022-11-23T04:19:33.774Z,11.28
2022-11-23T04:22:00.895Z,11.70
2022-11-23T04:24:33.827Z,11.27
2022-11-23T04:27:04.041Z,11.65
2022-11-23T04:29:31.025Z,11.48
2022-11-23T04:31:58.146Z,11.22
2022-11-23T04:34:25.569Z,11.43
2022-11-23T04:36:53.574Z,11.70
2022-11-23T04:39:26.727Z,11.75
2022-11-23T04:42:22.868Z,11.73
2022-11-23T04:44:57.393Z,11.71
2022-11-23T04:47:25.821Z,11.32
2022-11-23T04:49:53.957Z,11.11
2022-11-23T04:52:21.078Z,11.34
2022-11-23T04:54:50.186Z,10.57
2022-11-23T04:57:16.979Z,11.09
2022-11-23T04:59:45.468Z,11.59
2022-11-23T05:02:12.202Z,11.65
2022-11-23T05:04:48.276Z,11.15
2022-11-23T05:07:17.504Z,11.10
2022-11-23T05:09:50.155Z,10.66
2022-11-23T05:12:18.686Z,10.85
2022-11-23T05:14:45.530Z,11.23
2022-11-23T05:17:17.031Z,10.75
2022-11-23T05:19:46.544Z,11.10
2022-11-23T05:22:13.755Z,10.72
2022-11-23T05:24:42.026Z,10.48
2022-11-23T05:27:27.385Z,11.00
2022-11-23T05:29:55.290Z,11.05
2022-11-23T05:32:22.082Z,11.26
2022-11-23T05:34:48.761Z,10.19
2022-11-23T05:37:17.318Z,10.53
2022-11-23T05:39:53.250Z,11.14
2022-11-23T05:42:21.465Z,11.28
2022-11-23T05:44:48.453Z,11.03
2022-11-23T05:47:22.462Z,10.99
2022-11-23T05:49:50.451Z,10.91
2022-11-23T05:52:20.357Z,11.03
2022-11-23T05:54:47.829Z,10.94
2022-11-23T05:57:15.913Z,11.43
2022-11-23T05:59:44.870Z,11.34
2022-11-23T06:02:17.407Z,10.95
2022-11-23T06:04:44.950Z,11.06
2022-11-23T06:07:16.137Z,11.27
2022-11-23T06:10:04.278Z,10.89
2022-11-23T06:12:33.325Z,11.38
2022-11-23T06:15:01.308Z,11.78
2022-11-23T06:17:30.087Z,11.86
2022-11-23T06:20:02.243Z,12.22
2022-11-23T06:22:29.437Z,12.21
2022-11-23T06:25:01.652Z,11.71
2022-11-23T06:27:53.108Z,12.12
2022-11-23T06:30:25.157Z,11.53
2022-11-23T06:32:52.550Z,11.96
2022-11-23T06:35:21.224Z,12.44
2022-11-23T06:37:50.303Z,12.38
2022-11-23T06:40:17.614Z,12.26
2022-11-23T06:42:44.839Z,12.36
2022-11-23T06:45:20.341Z,11.95
2022-11-23T06:47:50.878Z,12.32
2022-11-23T06:50:18.306Z,11.69
2022-11-23T06:52:47.024Z,11.26
2022-11-23T06:55:15.193Z,11.67
2022-11-23T06:57:42.011Z,12.44
2022-11-23T07:00:11.908Z,12.23
2022-11-23T07:02:39.117Z,12.13
2022-11-23T07:05:06.387Z,12.48
2022-11-23T07:07:34.024Z,12.06
2022-11-23T07:10:10.610Z,12.71
2022-11-23T07:12:54.390Z,12.90
2022-11-23T07:15:22.703Z,13.02
2022-11-23T07:17:51.427Z,13.04
2022-11-23T07:20:20.686Z,12.59
2022-11-23T07:22:47.444Z,12.83
2022-11-23T07:25:18.452Z,13.06
2022-11-23T07:27:45.369Z,13.17
2022-11-23T07:30:12.591Z,12.83
2022-11-23T07:32:39.380Z,13.09
2022-11-23T07:35:06.492Z,13.34
2022-11-23T07:37:36.871Z,12.76
2022-11-23T07:40:05.494Z,12.77
2022-11-23T07:42:39.785Z,12.81
2022-11-23T07:45:10.582Z,12.47
2022-11-23T07:47:39.777Z,12.80
2022-11-23T07:50:08.686Z,12.55
2022-11-23T07:52:36.995Z,12.50
2022-11-23T07:55:04.967Z,12.74
2022-11-23T07:57:31.884Z,13.31
2022-11-23T07:59:58.951Z,13.80
2022-11-23T08:02:25.933Z,13.94
2022-11-23T08:04:52.666Z,13.78
2022-11-23T08:07:19.327Z,14.41
2022-11-23T08:09:46.235Z,14.63
2022-11-23T08:12:12.907Z,14.68
2022-11-23T08:14:39.825Z,14.29
2022-11-23T08:17:06.719Z,14.56
2022-11-23T08:19:33.359Z,14.78
2022-11-23T08:22:00.082Z,15.09
2022-11-23T08:24:27.056Z,15.34
2022-11-23T08:26:53.709Z,15.27
2022-11-23T08:29:20.754Z,15.37
2022-11-23T08:31:47.523Z,15.83
2022-11-23T08:34:14.316Z,15.56
2022-11-23T08:36:41.294Z,15.90
2022-11-23T08:39:08.807Z,16.26
2022-11-23T08:41:35.549Z,16.39
2022-11-23T08:44:02.448Z,16.92
2022-11-23T08:46:29.147Z,17.10
2022-11-23T08:48:56.266Z,16.95
2022-11-23T08:51:23.229Z,16.67
2022-11-23T08:53:50.576Z,16.49
2022-11-23T08:56:17.629Z,16.13
2022-11-23T08:58:45.179Z,15.96
2022-11-23T09:01:13.892Z,16.00
2022-11-23T09:03:41.704Z,15.71
2022-11-23T09:06:09.051Z,15.73
2022-11-23T09:08:36.957Z,16.45
2022-11-23T09:11:06.702Z,16.95
2022-11-23T09:13:37.144Z,17.23
2022-11-23T09:16:04.782Z,17.44
2022-11-23T09:18:33.365Z,17.40
2022-11-23T09:21:05.619Z,17.62
2022-11-23T09:23:33.091Z,18.25
2022-11-23T09:26:00.833Z,18.47
2022-11-23T09:28:28.545Z,18.36
2022-11-23T09:30:56.476Z,17.74
2022-11-23T09:33:25.202Z,18.54
2022-11-23T09:36:02.538Z,18.68
2022-11-23T09:38:54.580Z,18.42
2022-11-23T09:41:41.317Z,18.34
2022-11-23T09:44:39.425Z,18.39
2022-11-23T09:47:08.809Z,18.68
2022-11-23T09:49:44.302Z,18.93
2022-11-23T09:52:19.312Z,19.11
2022-11-23T09:54:47.555Z,19.14
2022-11-23T09:57:19.661Z,18.92
2022-11-23T09:59:55.806Z,18.32
2022-11-23T10:02:25.862Z,18.93
2022-11-23T10:04:53.799Z,19.06
2022-11-23T10:07:20.867Z,19.02
2022-11-23T10:10:10.403Z,19.20
2022-11-23T10:12:58.213Z,19.29
2022-11-23T10:15:39.681Z,19.23
2022-11-23T10:18:31.801Z,19.30
2022-11-23T10:21:36.204Z,19.03
2022-11-23T10:24:08.830Z,18.68
2022-11-23T10:26:40.083Z,18.47
2022-11-23T10:29:30.981Z,18.15
2022-11-23T10:31:59.388Z,17.84
2022-11-23T10:34:26.255Z,17.88
2022-11-23T10:36:52.964Z,17.69
2022-11-23T10:39:25.602Z,17.53
2022-11-23T10:41:53.613Z,17.44
2022-11-23T10:44:31.392Z,17.11
2022-11-23T10:46:59.633Z,17.10
2022-11-23T10:49:29.693Z,16.80
2022-11-23T10:52:05.893Z,16.90
2022-11-23T10:54:37.068Z,17.11
2022-11-23T10:57:39.828Z,17.18
2022-11-23T11:00:18.201Z,17.31
2022-11-23T11:02:54.657Z,16.40
2022-11-23T11:06:08.267Z,16.28
2022-11-23T11:08:21.089Z,16.07
2022-11-23T11:10:58.600Z,16.50
2022-11-23T11:13:32.640Z,17.36
2022-11-23T11:16:05.882Z,17.79
2022-11-23T11:18:37.965Z,17.57
2022-11-23T11:21:21.510Z,17.68
2022-11-23T11:23:54.407Z,18.21
2022-11-23T11:26:24.908Z,17.69
2022-11-23T11:28:58.107Z,17.68
2022-11-23T11:31:43.337Z,17.50
2022-11-23T11:34:20.953Z,17.85
2022-11-23T11:37:25.897Z,17.74
2022-11-23T11:39:57.611Z,17.62
2022-11-23T11:42:44.785Z,17.75
2022-11-23T11:45:19.340Z,17.67
2022-11-23T11:48:10.140Z,17.50
2022-11-23T11:50:50.701Z,17.63
2022-11-23T11:53:22.928Z,17.44
2022-11-23T11:56:18.665Z,16.87
2022-11-23T11:58:56.189Z,18.54
2022-11-23T12:01:43.548Z,21.44
2022-11-23T12:04:39.615Z,23.23
2022-11-23T12:07:18.384Z,24.04
2022-11-23T12:09:52.250Z,24.56
2022-11-23T12:12:26.603Z,24.82
2022-11-23T12:14:57.282Z,26.24
2022-11-23T12:17:51.767Z,26.50
2022-11-23T12:20:33.742Z,27.64
2022-11-23T12:23:00.573Z,28.14
2022-11-23T12:26:13.682Z,28.83
2022-11-23T12:28:58.826Z,28.48
2022-11-23T12:31:43.255Z,27.28
2022-11-23T12:34:18.882Z,27.30
2022-11-23T12:37:10.442Z,27.75
2022-11-23T12:40:03.697Z,27.77
2022-11-23T12:42:44.680Z,28.28
2022-11-23T12:45:29.629Z,28.83
2022-11-23T12:48:21.468Z,29.55
2022-11-23T12:51:33.709Z,28.46
2022-11-23T12:54:25.691Z,28.29
2022-11-23T12:56:55.060Z,29.06
2022-11-23T12:59:24.791Z,29.49
2022-11-23T13:02:00.612Z,29.42
2022-11-23T13:04:52.128Z,28.54
2022-11-23T13:07:51.166Z,28.92
2022-11-23T13:10:52.363Z,28.81
2022-11-23T13:13:33.588Z,26.28
2022-11-23T13:16:15.733Z,24.92
2022-11-23T13:18:48.958Z,25.12
2022-11-23T13:21:39.305Z,25.29
2022-11-23T13:24:25.890Z,26.37
2022-11-23T13:27:29.847Z,26.77
2022-11-23T13:30:01.166Z,26.26
2022-11-23T13:32:39.913Z,25.07
2022-11-23T13:35:18.892Z,23.86
2022-11-23T13:37:58.163Z,22.76
2022-11-23T13:40:29.706Z,21.85
2022-11-23T13:43:19.148Z,21.30
2022-11-23T13:45:46.585Z,21.07
2022-11-23T13:48:48.963Z,20.32
2022-11-23T13:51:05.871Z,19.88
2022-11-23T13:53:37.201Z,20.03
2022-11-23T13:56:23.596Z,19.96
2022-11-23T13:59:11.837Z,19.79
2022-11-23T14:02:10.295Z,19.90
2022-11-23T14:04:40.809Z,19.50
2022-11-23T14:07:28.856Z,19.40
2022-11-23T14:10:09.839Z,19.23
2022-11-23T14:12:47.431Z,19.15
2022-11-23T14:15:22.840Z,19.23
2022-11-23T14:18:14.407Z,19.46
2022-11-23T14:21:04.996Z,19.40
2022-11-23T14:24:14.193Z,19.18
2022-11-23T14:26:55.218Z,18.67
2022-11-23T14:29:22.272Z,18.68
2022-11-23T14:32:25.579Z,18.58
2022-11-23T14:35:12.588Z,18.58
2022-11-23T14:38:03.922Z,18.46
2022-11-23T14:41:08.453Z,18.47
2022-11-23T14:43:40.191Z,18.34
2022-11-23T14:46:15.386Z,17.99
2022-11-23T14:48:42.322Z,17.39
2022-11-23T14:51:26.517Z,17.22
2022-11-23T14:54:00.000Z,17.50
2022-11-23T14:56:36.921Z,17.60
2022-11-23T14:59:08.592Z,17.67
2022-11-23T15:01:37.395Z,17.76
2022-11-23T15:04:10.219Z,17.72
2022-11-23T15:06:45.577Z,17.67
2022-11-23T15:10:00.571Z,17.44
2022-11-23T15:12:40.385Z,17.58
2022-11-23T15:15:19.487Z,17.66
2022-11-23T15:17:53.182Z,17.55
2022-11-23T15:20:21.489Z,17.27
2022-11-23T15:22:49.298Z,17.26
2022-11-23T15:25:19.607Z,17.04
2022-11-23T15:27:49.414Z,17.27
2022-11-23T15:30:18.619Z,17.20
2022-11-23T15:32:56.430Z,17.08
2022-11-23T15:35:30.706Z,17.19
2022-11-23T15:37:59.418Z,17.19
2022-11-23T15:40:29.998Z,17.05
2022-11-23T15:42:57.444Z,16.86
2022-11-23T15:45:42.830Z,16.99
2022-11-23T15:48:21.710Z,16.67
2022-11-23T15:50:55.388Z,16.79
2022-11-23T15:53:27.199Z,15.89
2022-11-23T15:55:58.704Z,15.54
2022-11-23T15:58:25.747Z,15.62
2022-11-23T16:01:16.354Z,15.96
2022-11-23T16:04:00.789Z,16.13
2022-11-23T16:06:41.899Z,16.34
2022-11-23T16:09:57.130Z,16.47
2022-11-23T16:12:27.965Z,16.44
2022-11-23T16:14:56.682Z,16.37
2022-11-23T16:17:29.045Z,16.40
2022-11-23T16:20:03.974Z,16.31
2022-11-23T16:22:32.062Z,16.49
2022-11-23T16:25:04.482Z,16.36
2022-11-23T16:27:31.377Z,16.49
2022-11-23T16:30:02.889Z,16.36
2022-11-23T16:32:32.207Z,16.26
2022-11-23T16:35:14.599Z,16.22
2022-11-23T16:37:41.415Z,16.18
2022-11-23T16:40:08.710Z,16.53
2022-11-23T16:42:35.660Z,16.50
2022-11-23T16:45:03.422Z,16.72
2022-11-23T16:47:30.683Z,16.82
2022-11-23T16:49:57.738Z,16.83
2022-11-23T16:52:24.619Z,16.67
2022-11-23T16:54:52.757Z,16.60
2022-11-23T16:57:30.181Z,16.31
2022-11-23T17:00:02.511Z,16.62
2022-11-23T17:02:29.513Z,16.36
2022-11-23T17:04:59.471Z,16.11
2022-11-23T17:07:26.336Z,16.10
2022-11-23T17:09:53.665Z,16.03
2022-11-23T17:12:20.694Z,16.41
2022-11-23T17:14:49.498Z,16.47
2022-11-23T17:17:20.444Z,16.45
2022-11-23T17:19:49.775Z,16.44
2022-11-23T17:22:18.894Z,16.51
2022-11-23T17:24:47.329Z,16.46
2022-11-23T17:27:20.981Z,16.36
2022-11-23T17:29:51.260Z,16.26
2022-11-23T17:32:17.963Z,15.06
2022-11-23T17:34:45.297Z,15.17
2022-11-23T17:37:31.948Z,15.52
2022-11-23T17:39:58.873Z,15.43
2022-11-23T17:42:25.613Z,15.42
2022-11-23T17:44:52.518Z,15.17
2022-11-23T17:47:30.295Z,15.27
2022-11-23T17:49:58.272Z,15.02
2022-11-23T17:52:25.298Z,15.41
2022-11-23T17:54:52.304Z,15.46
2022-11-23T17:57:26.600Z,15.62
2022-11-23T17:59:54.582Z,15.61
2022-11-23T18:02:21.478Z,15.41
2022-11-23T18:04:48.594Z,15.08
2022-11-23T18:07:16.577Z,14.59
2022-11-23T18:09:43.605Z,14.75
2022-11-23T18:12:11.644Z,15.10
2022-11-23T18:14:38.689Z,15.18
2022-11-23T18:17:06.090Z,14.96
2022-11-23T18:19:32.941Z,14.55
2022-11-23T18:22:00.045Z,14.94
2022-11-23T18:24:26.944Z,15.07
2022-11-23T18:26:54.039Z,15.29
2022-11-23T18:29:20.821Z,15.34
2022-11-23T18:31:50.582Z,14.62
2022-11-23T18:34:17.279Z,14.85
2022-11-23T18:36:44.244Z,15.11
2022-11-23T18:39:11.128Z,15.01
2022-11-23T18:41:38.092Z,15.09
2022-11-23T18:44:04.956Z,15.04
2022-11-23T18:46:33.283Z,14.16
2022-11-23T18:49:00.668Z,14.38
2022-11-23T18:51:28.571Z,14.60
2022-11-23T18:53:55.679Z,14.60
2022-11-23T18:56:23.919Z,14.79
2022-11-23T18:58:50.678Z,14.98
2022-11-23T19:01:19.917Z,14.80
2022-11-23T19:03:49.142Z,14.65
2022-11-23T19:06:18.042Z,14.65
2022-11-23T19:08:47.371Z,14.78
2022-11-23T19:11:18.060Z,14.99
2022-11-23T19:13:47.537Z,14.94
2022-11-23T19:16:17.191Z,15.10
2022-11-23T19:18:45.178Z,15.18
2022-11-23T19:21:22.967Z,15.20
2022-11-23T19:23:51.786Z,15.33
2022-11-23T19:26:19.549Z,14.89
2022-11-23T19:28:47.002Z,14.03
2022-11-23T19:31:14.113Z,14.32
2022-11-23T19:33:43.366Z,14.61
2022-11-23T19:36:15.215Z,14.55
2022-11-23T19:38:43.954Z,14.63
2022-11-23T19:41:11.190Z,14.67
2022-11-23T19:43:38.589Z,14.56
2022-11-23T19:46:07.168Z,14.69
2022-11-23T19:48:34.752Z,14.56
2022-11-23T19:51:10.186Z,14.39
2022-11-23T19:53:38.726Z,14.09
2022-11-23T19:56:17.721Z,14.25
2022-11-23T19:58:44.694Z,14.34
2022-11-23T20:01:14.048Z,14.19
2022-11-23T20:03:43.330Z,14.35
2022-11-23T20:06:16.387Z,14.27
2022-11-23T20:08:43.967Z,14.09
2022-11-23T20:11:14.549Z,14.05
2022-11-23T20:13:42.050Z,13.73
2022-11-23T20:16:14.704Z,14.02
2022-11-23T20:18:43.976Z,13.92
2022-11-23T20:21:15.501Z,13.89
2022-11-23T20:23:43.404Z,13.85
2022-11-23T20:26:14.685Z,13.83
2022-11-23T20:28:42.558Z,13.94
2022-11-23T20:31:20.460Z,13.79
2022-11-23T20:33:50.573Z,13.69
2022-11-23T20:36:20.070Z,13.59
2022-11-23T20:38:47.672Z,13.44
2022-11-23T20:41:15.965Z,13.38
2022-11-23T20:43:44.292Z,13.32
2022-11-23T20:46:11.658Z,13.16
2022-11-23T20:48:43.272Z,13.47
2022-11-23T20:51:11.027Z,13.25
2022-11-23T20:53:37.965Z,12.88
2022-11-23T20:56:07.813Z,13.16
2022-11-23T20:58:35.694Z,13.30
2022-11-23T21:01:09.697Z,13.39
2022-11-23T21:03:38.095Z,13.29
2022-11-23T21:06:06.011Z,13.21
2022-11-23T21:08:34.989Z,12.95
2022-11-23T21:11:41.471Z,13.00
2022-11-23T21:14:17.844Z,13.10
2022-11-23T21:16:55.004Z,12.96
2022-11-23T21:19:24.943Z,12.73
2022-11-23T21:21:52.808Z,12.95
2022-11-23T21:24:20.093Z,13.14
2022-11-23T21:26:47.739Z,13.07
2022-11-23T21:29:34.737Z,12.63
2022-11-23T21:32:01.668Z,12.61
2022-11-23T21:34:29.703Z,12.56
2022-11-23T21:36:57.268Z,12.79
2022-11-23T21:39:24.798Z,12.72
2022-11-23T21:41:53.762Z,12.93
2022-11-23T21:44:22.141Z,12.65
2022-11-23T21:46:49.560Z,12.51
2022-11-23T21:49:16.374Z,12.70
2022-11-23T21:51:43.807Z,12.55
2022-11-23T21:54:14.052Z,12.49
2022-11-23T21:56:42.706Z,12.49
2022-11-23T21:59:09.779Z,12.67
2022-11-23T22:01:37.631Z,12.83
2022-11-23T22:04:10.457Z,12.61
2022-11-23T22:06:38.568Z,12.43
2022-11-23T22:09:07.317Z,12.59
2022-11-23T22:11:35.984Z,12.59
2022-11-23T22:14:05.029Z,12.62
2022-11-23T22:16:40.786Z,12.53
2022-11-23T22:19:13.362Z,12.52
2022-11-23T22:21:42.151Z,12.48
2022-11-23T22:24:17.319Z,12.26
2022-11-23T22:26:45.866Z,12.43
2022-11-23T22:29:12.640Z,12.48
2022-11-23T22:31:39.600Z,12.48
2022-11-23T22:34:10.259Z,12.00
2022-11-23T22:36:37.174Z,12.06
2022-11-23T22:39:06.221Z,12.12
2022-11-23T22:41:36.699Z,12.17
2022-11-23T22:44:05.829Z,12.21
2022-11-23T22:46:32.904Z,11.95
2022-11-23T22:48:59.730Z,12.08
2022-11-23T22:51:28.515Z,11.47
2022-11-23T22:53:57.214Z,11.70
2022-11-23T22:56:24.506Z,11.93
2022-11-23T22:58:51.209Z,12.06
2022-11-23T23:01:20.636Z,11.29
2022-11-23T23:03:47.776Z,11.48
2022-11-23T23:06:19.637Z,11.70
2022-11-23T23:08:48.044Z,11.87
2022-11-23T23:11:15.718Z,11.83
2022-11-23T23:13:42.914Z,11.89
2022-11-23T23:16:13.685Z,11.99
2022-11-23T23:18:41.850Z,11.90
2022-11-23T23:21:18.497Z,11.86
2022-11-23T23:23:47.163Z,11.76
2022-11-23T23:26:16.047Z,11.68
2022-11-23T23:28:43.313Z,11.78
2022-11-23T23:31:12.661Z,10.69
2022-11-23T23:33:39.956Z,10.87
2022-11-23T23:36:09.638Z,11.32
2022-11-23T23:38:37.479Z,11.60
2022-11-23T23:41:05.579Z,11.77
2022-11-23T23:43:32.763Z,11.85
2022-11-23T23:46:04.700Z,11.35
2022-11-23T23:48:33.839Z,10.80
2022-11-23T23:51:07.983Z,10.99
2022-11-23T23:53:36.057Z,11.08
2022-11-23T23:56:05.913Z,10.83
2022-11-23T23:58:32.748Z,11.03
